sensor_id;sensor_type;location;lat;lon;timestamp;pressure;altitude;pressure_sealevel;temperature;humidity
54554;BME280;40450;55.848;-3.572;2022-12-07T00:02:00;100551.94;;;3.38;66.83
54554;BME280;40450;55.848;-3.572;2022-12-07T00:04:30;100548.20;;;3.60;65.53
54554;BME280;40450;55.848;-3.572;2022-12-07T00:07:01;100544.60;;;4.01;65.17
54554;BME280;40450;55.848;-3.572;2022-12-07T00:09:31;100540.95;;;3.86;64.13
54554;BME280;40450;55.848;-3.572;2022-12-07T00:12:02;100537.49;;;3.68;64.22
54554;BME280;40450;55.848;-3.572;2022-12-07T00:14:32;100537.43;;;3.16;65.77
54554;BME280;40450;55.848;-3.572;2022-12-07T00:17:03;100537.06;;;2.80;66.47
54554;BME280;40450;55.848;-3.572;2022-12-07T00:19:33;100538.41;;;3.32;65.87
54554;BME280;40450;55.848;-3.572;2022-12-07T00:22:04;100537.99;;;3.50;65.11
54554;BME280;40450;55.848;-3.572;2022-12-07T00:24:34;100541.76;;;3.39;65.04
54554;BME280;40450;55.848;-3.572;2022-12-07T00:27:05;100540.64;;;3.68;64.22
54554;BME280;40450;55.848;-3.572;2022-12-07T00:29:35;100539.01;;;3.74;64.51
54554;BME280;40450;55.848;-3.572;2022-12-07T00:32:06;100535.19;;;3.89;64.68
54554;BME280;40450;55.848;-3.572;2022-12-07T00:34:36;100530.13;;;4.00;63.92
54554;BME280;40450;55.848;-3.572;2022-12-07T00:37:07;100532.74;;;4.06;63.60
54554;BME280;40450;55.848;-3.572;2022-12-07T00:39:37;100529.19;;;4.12;63.90
54554;BME280;40450;55.848;-3.572;2022-12-07T00:42:08;100527.72;;;4.23;64.12
54554;BME280;40450;55.848;-3.572;2022-12-07T00:44:38;100527.20;;;3.39;64.67
54554;BME280;40450;55.848;-3.572;2022-12-07T00:47:09;100521.89;;;3.39;64.81
54554;BME280;40450;55.848;-3.572;2022-12-07T00:49:39;100513.75;;;3.72;64.43
54554;BME280;40450;55.848;-3.572;2022-12-07T00:52:10;100510.24;;;3.89;64.35
54554;BME280;40450;55.848;-3.572;2022-12-07T00:54:40;100505.96;;;3.99;63.96
54554;BME280;40450;55.848;-3.572;2022-12-07T00:57:11;100501.77;;;4.32;63.17
54554;BME280;40450;55.848;-3.572;2022-12-07T00:59:41;100502.48;;;4.25;62.94
54554;BME280;40450;55.848;-3.572;2022-12-07T01:02:12;100495.16;;;4.23;62.10
54554;BME280;40450;55.848;-3.572;2022-12-07T01:04:43;100495.69;;;4.23;62.74
54554;BME280;40450;55.848;-3.572;2022-12-07T01:07:13;100492.98;;;3.87;62.96
54554;BME280;40450;55.848;-3.572;2022-12-07T01:09:43;100492.05;;;3.60;63.38
54554;BME280;40450;55.848;-3.572;2022-12-07T01:12:14;100490.17;;;2.29;66.60
54554;BME280;40450;55.848;-3.572;2022-12-07T01:14:44;100494.02;;;1.23;69.27
54554;BME280;40450;55.848;-3.572;2022-12-07T01:17:15;100493.34;;;0.58;71.04
54554;BME280;40450;55.848;-3.572;2022-12-07T01:19:45;100491.94;;;-0.30;72.83
54554;BME280;40450;55.848;-3.572;2022-12-07T01:22:16;100490.95;;;-0.99;74.32
54554;BME280;40450;55.848;-3.572;2022-12-07T01:24:46;100494.47;;;-1.10;75.09
54554;BME280;40450;55.848;-3.572;2022-12-07T01:27:17;100492.80;;;-1.74;77.59
54554;BME280;40450;55.848;-3.572;2022-12-07T01:29:47;100482.62;;;-1.00;76.04
54554;BME280;40450;55.848;-3.572;2022-12-07T01:32:18;100479.18;;;-0.46;75.05
54554;BME280;40450;55.848;-3.572;2022-12-07T01:34:48;100479.51;;;-0.48;75.05
54554;BME280;40450;55.848;-3.572;2022-12-07T01:37:19;100481.48;;;-0.23;74.76
54554;BME280;40450;55.848;-3.572;2022-12-07T01:39:49;100485.28;;;-0.01;74.29
54554;BME280;40450;55.848;-3.572;2022-12-07T01:42:20;100483.04;;;-0.92;75.85
54554;BME280;40450;55.848;-3.572;2022-12-07T01:47:20;100484.62;;;-1.28;77.61
54554;BME280;40450;55.848;-3.572;2022-12-07T01:49:51;100478.51;;;-0.49;75.91
54554;BME280;40450;55.848;-3.572;2022-12-07T01:52:25;100478.40;;;0.24;74.28
54554;BME280;40450;55.848;-3.572;2022-12-07T01:54:56;100481.23;;;0.64;73.26
54554;BME280;40450;55.848;-3.572;2022-12-07T01:57:23;100484.56;;;0.99;72.58
54554;BME280;40450;55.848;-3.572;2022-12-07T01:59:54;100485.77;;;1.20;71.94
54554;BME280;40450;55.848;-3.572;2022-12-07T02:02:26;100488.13;;;1.32;71.79
54554;BME280;40450;55.848;-3.572;2022-12-07T02:04:56;100487.39;;;1.60;70.91
54554;BME280;40450;55.848;-3.572;2022-12-07T02:07:25;100486.85;;;1.53;70.73
54554;BME280;40450;55.848;-3.572;2022-12-07T02:09:55;100486.08;;;1.89;70.91
54554;BME280;40450;55.848;-3.572;2022-12-07T02:12:26;100483.35;;;2.22;69.79
54554;BME280;40450;55.848;-3.572;2022-12-07T02:14:56;100483.74;;;2.37;69.36
54554;BME280;40450;55.848;-3.572;2022-12-07T02:17:34;100479.40;;;2.52;69.28
54554;BME280;40450;55.848;-3.572;2022-12-07T02:20:08;100478.82;;;2.34;68.29
54554;BME280;40450;55.848;-3.572;2022-12-07T02:25:05;100472.45;;;2.70;67.03
54554;BME280;40450;55.848;-3.572;2022-12-07T02:27:36;100470.08;;;2.24;67.84
54554;BME280;40450;55.848;-3.572;2022-12-07T02:30:01;100468.03;;;2.80;67.82
54554;BME280;40450;55.848;-3.572;2022-12-07T02:32:40;100465.51;;;2.80;66.99
54554;BME280;40450;55.848;-3.572;2022-12-07T02:35:06;100469.85;;;2.64;67.17
54554;BME280;40450;55.848;-3.572;2022-12-07T02:37:36;100468.87;;;2.72;67.40
54554;BME280;40450;55.848;-3.572;2022-12-07T02:40:06;100461.88;;;2.42;66.86
54554;BME280;40450;55.848;-3.572;2022-12-07T02:42:36;100458.06;;;2.31;67.05
54554;BME280;40450;55.848;-3.572;2022-12-07T02:45:03;100459.69;;;2.78;67.01
54554;BME280;40450;55.848;-3.572;2022-12-07T02:47:33;100455.77;;;2.67;66.41
54554;BME280;40450;55.848;-3.572;2022-12-07T02:50:05;100454.20;;;3.23;66.27
54554;BME280;40450;55.848;-3.572;2022-12-07T02:52:34;100455.11;;;3.71;66.26
54554;BME280;40450;55.848;-3.572;2022-12-07T02:55:05;100447.51;;;3.71;64.95
54554;BME280;40450;55.848;-3.572;2022-12-07T02:57:45;100439.67;;;4.11;65.26
54554;BME280;40450;55.848;-3.572;2022-12-07T03:00:07;100433.48;;;4.01;64.48
54554;BME280;40450;55.848;-3.572;2022-12-07T03:02:45;100426.71;;;4.00;64.11
54554;BME280;40450;55.848;-3.572;2022-12-07T03:05:18;100423.98;;;3.80;63.59
54554;BME280;40450;55.848;-3.572;2022-12-07T03:07:43;100419.07;;;4.13;63.70
54554;BME280;40450;55.848;-3.572;2022-12-07T03:10:12;100425.93;;;4.20;63.06
54554;BME280;40450;55.848;-3.572;2022-12-07T03:12:44;100430.29;;;3.65;63.54
54554;BME280;40450;55.848;-3.572;2022-12-07T03:15:13;100428.83;;;4.10;63.22
54554;BME280;40450;55.848;-3.572;2022-12-07T03:17:40;100422.23;;;3.77;63.16
54554;BME280;40450;55.848;-3.572;2022-12-07T03:20:14;100423.91;;;3.76;63.22
54554;BME280;40450;55.848;-3.572;2022-12-07T03:22:42;100423.82;;;3.67;63.59
54554;BME280;40450;55.848;-3.572;2022-12-07T03:25:13;100428.19;;;3.62;63.57
54554;BME280;40450;55.848;-3.572;2022-12-07T03:27:44;100426.85;;;3.72;63.54
54554;BME280;40450;55.848;-3.572;2022-12-07T03:30:17;100426.30;;;3.05;64.07
54554;BME280;40450;55.848;-3.572;2022-12-07T03:32:44;100429.48;;;2.34;65.00
54554;BME280;40450;55.848;-3.572;2022-12-07T03:35:17;100431.18;;;2.20;66.43
54554;BME280;40450;55.848;-3.572;2022-12-07T03:37:47;100427.89;;;1.99;67.07
54554;BME280;40450;55.848;-3.572;2022-12-07T03:40:18;100426.89;;;2.01;66.97
54554;BME280;40450;55.848;-3.572;2022-12-07T03:42:44;100419.87;;;2.27;66.50
54554;BME280;40450;55.848;-3.572;2022-12-07T03:45:15;100414.68;;;2.35;65.95
54554;BME280;40450;55.848;-3.572;2022-12-07T03:47:48;100411.10;;;2.98;65.36
54554;BME280;40450;55.848;-3.572;2022-12-07T03:50:21;100411.85;;;3.39;65.02
54554;BME280;40450;55.848;-3.572;2022-12-07T03:52:52;100409.63;;;3.15;64.48
54554;BME280;40450;55.848;-3.572;2022-12-07T03:55:20;100411.34;;;3.36;64.65
54554;BME280;40450;55.848;-3.572;2022-12-07T03:57:49;100409.78;;;3.52;64.41
54554;BME280;40450;55.848;-3.572;2022-12-07T04:00:18;100405.56;;;3.71;64.18
54554;BME280;40450;55.848;-3.572;2022-12-07T04:02:51;100410.93;;;3.75;62.96
54554;BME280;40450;55.848;-3.572;2022-12-07T04:05:19;100410.51;;;3.94;63.17
54554;BME280;40450;55.848;-3.572;2022-12-07T04:07:49;100406.35;;;3.90;63.45
54554;BME280;40450;55.848;-3.572;2022-12-07T04:10:19;100403.94;;;3.57;63.36
54554;BME280;40450;55.848;-3.572;2022-12-07T04:12:50;100402.02;;;3.24;63.47
54554;BME280;40450;55.848;-3.572;2022-12-07T04:15:20;100397.43;;;2.94;64.00
54554;BME280;40450;55.848;-3.572;2022-12-07T04:17:51;100389.93;;;2.69;64.73
54554;BME280;40450;55.848;-3.572;2022-12-07T04:20:21;100385.43;;;3.00;64.63
54554;BME280;40450;55.848;-3.572;2022-12-07T04:22:52;100384.96;;;3.27;64.51
54554;BME280;40450;55.848;-3.572;2022-12-07T04:25:22;100383.65;;;3.24;63.34
54554;BME280;40450;55.848;-3.572;2022-12-07T04:27:53;100380.49;;;3.27;63.22
54554;BME280;40450;55.848;-3.572;2022-12-07T04:30:23;100378.03;;;2.84;64.08
54554;BME280;40450;55.848;-3.572;2022-12-07T04:32:54;100375.67;;;3.11;63.99
54554;BME280;40450;55.848;-3.572;2022-12-07T04:35:24;100375.09;;;2.87;64.13
54554;BME280;40450;55.848;-3.572;2022-12-07T04:37:55;100374.39;;;3.25;63.80
54554;BME280;40450;55.848;-3.572;2022-12-07T04:40:25;100380.00;;;3.47;63.49
54554;BME280;40450;55.848;-3.572;2022-12-07T04:42:56;100378.03;;;3.69;63.14
54554;BME280;40450;55.848;-3.572;2022-12-07T04:45:26;100380.19;;;3.97;62.22
54554;BME280;40450;55.848;-3.572;2022-12-07T04:47:57;100380.87;;;3.72;62.46
54554;BME280;40450;55.848;-3.572;2022-12-07T04:50:27;100375.62;;;3.58;62.12
54554;BME280;40450;55.848;-3.572;2022-12-07T04:52:57;100380.62;;;3.66;62.43
54554;BME280;40450;55.848;-3.572;2022-12-07T04:55:28;100383.05;;;3.49;62.30
54554;BME280;40450;55.848;-3.572;2022-12-07T04:57:58;100383.32;;;3.37;62.50
54554;BME280;40450;55.848;-3.572;2022-12-07T05:00:29;100384.32;;;2.99;63.46
54554;BME280;40450;55.848;-3.572;2022-12-07T05:03:04;100379.95;;;2.50;64.74
54554;BME280;40450;55.848;-3.572;2022-12-07T05:05:30;100381.65;;;2.46;65.09
54554;BME280;40450;55.848;-3.572;2022-12-07T05:08:00;100382.94;;;1.86;66.58
54554;BME280;40450;55.848;-3.572;2022-12-07T05:10:31;100379.94;;;2.54;65.56
54554;BME280;40450;55.848;-3.572;2022-12-07T05:13:01;100376.29;;;1.91;67.04
54554;BME280;40450;55.848;-3.572;2022-12-07T05:15:32;100376.06;;;2.14;66.62
54554;BME280;40450;55.848;-3.572;2022-12-07T05:18:03;100372.72;;;2.36;66.27
54554;BME280;40450;55.848;-3.572;2022-12-07T05:20:33;100370.17;;;2.59;66.09
54554;BME280;40450;55.848;-3.572;2022-12-07T05:23:04;100371.80;;;2.96;65.54
54554;BME280;40450;55.848;-3.572;2022-12-07T05:25:34;100366.85;;;3.50;65.00
54554;BME280;40450;55.848;-3.572;2022-12-07T05:28:05;100363.51;;;3.59;64.12
54554;BME280;40450;55.848;-3.572;2022-12-07T05:30:35;100358.04;;;3.85;62.85
54554;BME280;40450;55.848;-3.572;2022-12-07T05:33:05;100350.65;;;3.07;63.97
54554;BME280;40450;55.848;-3.572;2022-12-07T05:35:36;100343.73;;;2.78;64.68
54554;BME280;40450;55.848;-3.572;2022-12-07T05:38:06;100335.77;;;2.09;66.17
54554;BME280;40450;55.848;-3.572;2022-12-07T05:40:37;100337.95;;;1.80;66.59
54554;BME280;40450;55.848;-3.572;2022-12-07T05:43:07;100329.45;;;1.40;68.41
54554;BME280;40450;55.848;-3.572;2022-12-07T05:45:37;100334.59;;;0.88;69.79
54554;BME280;40450;55.848;-3.572;2022-12-07T05:48:08;100326.73;;;1.15;69.35
54554;BME280;40450;55.848;-3.572;2022-12-07T05:50:38;100326.08;;;1.72;68.23
54554;BME280;40450;55.848;-3.572;2022-12-07T05:53:09;100326.39;;;0.99;69.26
54554;BME280;40450;55.848;-3.572;2022-12-07T05:55:40;100336.36;;;0.14;71.90
54554;BME280;40450;55.848;-3.572;2022-12-07T05:58:10;100337.54;;;0.05;72.40
54554;BME280;40450;55.848;-3.572;2022-12-07T06:00:40;100337.68;;;0.24;71.68
54554;BME280;40450;55.848;-3.572;2022-12-07T06:03:11;100329.26;;;1.26;70.60
54554;BME280;40450;55.848;-3.572;2022-12-07T06:05:42;100333.10;;;0.65;71.18
54554;BME280;40450;55.848;-3.572;2022-12-07T06:08:12;100325.13;;;1.01;70.77
54554;BME280;40450;55.848;-3.572;2022-12-07T06:10:42;100321.91;;;1.38;70.95
54554;BME280;40450;55.848;-3.572;2022-12-07T06:13:13;100323.91;;;1.90;68.32
54554;BME280;40450;55.848;-3.572;2022-12-07T06:15:43;100323.27;;;2.81;68.65
54554;BME280;40450;55.848;-3.572;2022-12-07T06:18:14;100318.96;;;3.22;65.80
54554;BME280;40450;55.848;-3.572;2022-12-07T06:20:44;100319.54;;;3.49;66.27
54554;BME280;40450;55.848;-3.572;2022-12-07T06:23:15;100314.40;;;3.29;66.43
54554;BME280;40450;55.848;-3.572;2022-12-07T06:25:45;100317.82;;;3.70;66.60
54554;BME280;40450;55.848;-3.572;2022-12-07T06:28:16;100314.35;;;3.80;64.76
54554;BME280;40450;55.848;-3.572;2022-12-07T06:30:46;100314.03;;;4.15;65.88
54554;BME280;40450;55.848;-3.572;2022-12-07T06:33:17;100311.28;;;4.43;63.60
54554;BME280;40450;55.848;-3.572;2022-12-07T06:35:48;100310.18;;;3.83;63.54
54554;BME280;40450;55.848;-3.572;2022-12-07T06:38:18;100307.79;;;3.62;64.18
54554;BME280;40450;55.848;-3.572;2022-12-07T06:40:48;100305.61;;;3.28;65.00
54554;BME280;40450;55.848;-3.572;2022-12-07T06:43:19;100303.13;;;3.24;65.53
54554;BME280;40450;55.848;-3.572;2022-12-07T06:45:49;100296.27;;;3.47;65.36
54554;BME280;40450;55.848;-3.572;2022-12-07T06:48:20;100296.15;;;4.19;65.11
54554;BME280;40450;55.848;-3.572;2022-12-07T06:50:50;100297.66;;;4.08;64.81
54554;BME280;40450;55.848;-3.572;2022-12-07T06:53:21;100299.35;;;4.55;64.23
54554;BME280;40450;55.848;-3.572;2022-12-07T06:55:51;100297.92;;;4.62;62.44
54554;BME280;40450;55.848;-3.572;2022-12-07T06:58:21;100291.37;;;4.75;63.94
54554;BME280;40450;55.848;-3.572;2022-12-07T07:00:52;100287.14;;;4.20;63.37
54554;BME280;40450;55.848;-3.572;2022-12-07T07:03:22;100284.53;;;4.60;62.98
54554;BME280;40450;55.848;-3.572;2022-12-07T07:05:53;100287.64;;;4.84;63.18
54554;BME280;40450;55.848;-3.572;2022-12-07T07:08:23;100291.35;;;4.75;62.91
54554;BME280;40450;55.848;-3.572;2022-12-07T07:10:54;100293.00;;;5.14;63.53
54554;BME280;40450;55.848;-3.572;2022-12-07T07:13:30;100295.09;;;4.64;62.80
54554;BME280;40450;55.848;-3.572;2022-12-07T07:15:55;100298.79;;;4.43;62.94
54554;BME280;40450;55.848;-3.572;2022-12-07T07:18:25;100297.40;;;4.56;63.52
54554;BME280;40450;55.848;-3.572;2022-12-07T07:20:56;100289.29;;;4.50;63.49
54554;BME280;40450;55.848;-3.572;2022-12-07T07:23:26;100289.40;;;5.06;63.73
54554;BME280;40450;55.848;-3.572;2022-12-07T07:25:57;100285.34;;;5.25;62.73
54554;BME280;40450;55.848;-3.572;2022-12-07T07:28:27;100283.28;;;5.45;61.85
54554;BME280;40450;55.848;-3.572;2022-12-07T07:30:58;100275.98;;;5.88;61.65
54554;BME280;40450;55.848;-3.572;2022-12-07T07:33:28;100280.37;;;5.09;60.91
54554;BME280;40450;55.848;-3.572;2022-12-07T07:35:58;100284.47;;;5.25;61.31
54554;BME280;40450;55.848;-3.572;2022-12-07T07:38:29;100285.51;;;5.55;62.18
54554;BME280;40450;55.848;-3.572;2022-12-07T07:40:59;100278.33;;;5.41;61.05
54554;BME280;40450;55.848;-3.572;2022-12-07T07:43:30;100268.62;;;4.36;62.21
54554;BME280;40450;55.848;-3.572;2022-12-07T07:46:00;100266.92;;;4.57;62.46
54554;BME280;40450;55.848;-3.572;2022-12-07T07:48:31;100265.57;;;4.91;62.00
54554;BME280;40450;55.848;-3.572;2022-12-07T07:51:04;100265.01;;;5.30;61.67
54554;BME280;40450;55.848;-3.572;2022-12-07T07:53:31;100266.89;;;5.50;61.14
54554;BME280;40450;55.848;-3.572;2022-12-07T07:56:02;100266.42;;;5.41;61.07
54554;BME280;40450;55.848;-3.572;2022-12-07T07:58:32;100263.87;;;5.64;61.25
54554;BME280;40450;55.848;-3.572;2022-12-07T08:01:04;100257.03;;;5.46;60.55
54554;BME280;40450;55.848;-3.572;2022-12-07T08:03:33;100247.70;;;5.66;60.43
54554;BME280;40450;55.848;-3.572;2022-12-07T08:06:04;100243.70;;;5.73;60.14
54554;BME280;40450;55.848;-3.572;2022-12-07T08:08:34;100245.64;;;5.95;59.62
54554;BME280;40450;55.848;-3.572;2022-12-07T08:11:05;100250.56;;;5.30;59.81
54554;BME280;40450;55.848;-3.572;2022-12-07T08:13:35;100248.40;;;5.66;59.67
54554;BME280;40450;55.848;-3.572;2022-12-07T08:16:07;100260.90;;;4.87;60.57
54554;BME280;40450;55.848;-3.572;2022-12-07T08:18:36;100252.85;;;3.79;63.28
54554;BME280;40450;55.848;-3.572;2022-12-07T08:21:07;100256.73;;;3.64;63.62
54554;BME280;40450;55.848;-3.572;2022-12-07T08:23:36;100256.96;;;3.44;64.89
54554;BME280;40450;55.848;-3.572;2022-12-07T08:26:09;100255.08;;;3.68;64.07
54554;BME280;40450;55.848;-3.572;2022-12-07T08:28:38;100255.44;;;3.41;64.77
54554;BME280;40450;55.848;-3.572;2022-12-07T08:31:11;100256.61;;;2.63;66.64
54554;BME280;40450;55.848;-3.572;2022-12-07T08:33:39;100255.96;;;2.25;67.56
54554;BME280;40450;55.848;-3.572;2022-12-07T08:36:10;100255.33;;;1.59;69.24
54554;BME280;40450;55.848;-3.572;2022-12-07T08:38:40;100258.46;;;0.84;71.08
54554;BME280;40450;55.848;-3.572;2022-12-07T08:41:09;100259.03;;;0.10;73.14
54554;BME280;40450;55.848;-3.572;2022-12-07T08:43:40;100268.31;;;-0.56;74.92
54554;BME280;40450;55.848;-3.572;2022-12-07T08:46:13;100262.49;;;0.09;73.20
54554;BME280;40450;55.848;-3.572;2022-12-07T08:48:43;100259.79;;;1.06;71.39
54554;BME280;40450;55.848;-3.572;2022-12-07T08:51:11;100259.43;;;1.70;70.23
54554;BME280;40450;55.848;-3.572;2022-12-07T08:53:43;100255.93;;;1.94;68.96
54554;BME280;40450;55.848;-3.572;2022-12-07T08:56:12;100256.06;;;2.51;68.99
54554;BME280;40450;55.848;-3.572;2022-12-07T08:58:43;100254.45;;;3.10;67.97
54554;BME280;40450;55.848;-3.572;2022-12-07T09:01:13;100250.96;;;3.26;66.41
54554;BME280;40450;55.848;-3.572;2022-12-07T09:03:43;100252.46;;;2.52;67.87
54554;BME280;40450;55.848;-3.572;2022-12-07T09:06:14;100255.57;;;2.12;68.85
54554;BME280;40450;55.848;-3.572;2022-12-07T09:08:47;100253.92;;;1.33;70.78
54554;BME280;40450;55.848;-3.572;2022-12-07T09:11:15;100256.45;;;1.79;70.13
54554;BME280;40450;55.848;-3.572;2022-12-07T09:13:45;100252.81;;;2.60;69.40
54554;BME280;40450;55.848;-3.572;2022-12-07T09:16:16;100250.65;;;2.67;68.53
54554;BME280;40450;55.848;-3.572;2022-12-07T09:18:46;100250.27;;;3.59;69.21
54554;BME280;40450;55.848;-3.572;2022-12-07T09:21:16;100244.73;;;4.06;66.78
54554;BME280;40450;55.848;-3.572;2022-12-07T09:23:47;100240.62;;;3.50;66.67
54554;BME280;40450;55.848;-3.572;2022-12-07T09:26:18;100240.42;;;2.97;68.21
54554;BME280;40450;55.848;-3.572;2022-12-07T09:28:48;100239.85;;;3.47;68.34
54554;BME280;40450;55.848;-3.572;2022-12-07T09:31:18;100238.88;;;3.98;67.14
54554;BME280;40450;55.848;-3.572;2022-12-07T09:33:53;100230.96;;;4.36;66.41
54554;BME280;40450;55.848;-3.572;2022-12-07T09:36:20;100220.81;;;4.43;65.33
54554;BME280;40450;55.848;-3.572;2022-12-07T09:38:50;100210.88;;;4.54;65.59
54554;BME280;40450;55.848;-3.572;2022-12-07T09:41:21;100205.51;;;4.55;65.44
54554;BME280;40450;55.848;-3.572;2022-12-07T09:43:52;100206.51;;;4.32;65.22
54554;BME280;40450;55.848;-3.572;2022-12-07T09:46:21;100205.89;;;4.66;64.92
54554;BME280;40450;55.848;-3.572;2022-12-07T09:48:52;100203.36;;;4.59;64.71
54554;BME280;40450;55.848;-3.572;2022-12-07T09:51:23;100201.57;;;4.57;65.19
54554;BME280;40450;55.848;-3.572;2022-12-07T09:53:54;100206.31;;;4.56;65.69
54554;BME280;40450;55.848;-3.572;2022-12-07T09:56:24;100204.42;;;4.96;64.78
54554;BME280;40450;55.848;-3.572;2022-12-07T09:58:58;100200.42;;;5.31;64.36
54554;BME280;40450;55.848;-3.572;2022-12-07T10:01:24;100204.12;;;5.07;63.63
54554;BME280;40450;55.848;-3.572;2022-12-07T10:04:00;100201.16;;;5.08;64.42
54554;BME280;40450;55.848;-3.572;2022-12-07T10:06:25;100196.47;;;5.39;64.49
54554;BME280;40450;55.848;-3.572;2022-12-07T10:08:55;100198.97;;;5.03;64.60
54554;BME280;40450;55.848;-3.572;2022-12-07T10:11:26;100198.68;;;5.16;64.63
54554;BME280;40450;55.848;-3.572;2022-12-07T10:16:37;100205.16;;;4.75;65.26
54554;BME280;40450;55.848;-3.572;2022-12-07T10:18:57;100198.23;;;5.39;65.03
54554;BME280;40450;55.848;-3.572;2022-12-07T10:21:28;100195.36;;;5.14;64.92
54554;BME280;40450;55.848;-3.572;2022-12-07T10:24:02;100192.25;;;4.58;66.17
54554;BME280;40450;55.848;-3.572;2022-12-07T10:26:31;100198.05;;;4.09;67.27
54554;BME280;40450;55.848;-3.572;2022-12-07T10:29:00;100185.39;;;5.59;64.72
54554;BME280;40450;55.848;-3.572;2022-12-07T10:31:29;100184.80;;;6.38;64.36
54554;BME280;40450;55.848;-3.572;2022-12-07T10:34:01;100182.67;;;6.30;63.48
54554;BME280;40450;55.848;-3.572;2022-12-07T10:36:36;100186.52;;;5.91;64.14
54554;BME280;40450;55.848;-3.572;2022-12-07T10:39:03;100183.18;;;5.36;65.58
54554;BME280;40450;55.848;-3.572;2022-12-07T10:41:31;100186.30;;;3.01;69.16
54554;BME280;40450;55.848;-3.572;2022-12-07T10:44:02;100182.65;;;1.75;73.95
54554;BME280;40450;55.848;-3.572;2022-12-07T10:49:10;100183.25;;;0.04;78.77
54554;BME280;40450;55.848;-3.572;2022-12-07T10:51:37;100187.65;;;-1.17;81.60
54554;BME280;40450;55.848;-3.572;2022-12-07T10:54:10;100185.31;;;-0.92;82.08
54554;BME280;40450;55.848;-3.572;2022-12-07T10:56:42;100179.33;;;0.29;79.32
54554;BME280;40450;55.848;-3.572;2022-12-07T10:59:20;100170.57;;;-0.39;80.32
54554;BME280;40450;55.848;-3.572;2022-12-07T11:01:41;100169.14;;;-0.50;80.65
54554;BME280;40450;55.848;-3.572;2022-12-07T11:04:21;100163.31;;;0.61;77.98
54554;BME280;40450;55.848;-3.572;2022-12-07T11:06:41;100161.96;;;0.06;80.15
54554;BME280;40450;55.848;-3.572;2022-12-07T11:09:20;100152.49;;;1.97;77.57
54554;BME280;40450;55.848;-3.572;2022-12-07T11:11:40;100145.03;;;3.11;72.69
54554;BME280;40450;55.848;-3.572;2022-12-07T11:14:16;100142.86;;;4.33;72.39
54554;BME280;40450;55.848;-3.572;2022-12-07T11:16:47;100143.95;;;4.84;70.35
54554;BME280;40450;55.848;-3.572;2022-12-07T11:19:23;100140.95;;;5.26;69.24
54554;BME280;40450;55.848;-3.572;2022-12-07T11:21:45;100134.01;;;5.86;68.95
54554;BME280;40450;55.848;-3.572;2022-12-07T11:24:13;100122.60;;;6.14;66.33
54554;BME280;40450;55.848;-3.572;2022-12-07T11:26:55;100113.37;;;6.53;67.22
54554;BME280;40450;55.848;-3.572;2022-12-07T11:29:24;100120.00;;;7.05;66.56
54554;BME280;40450;55.848;-3.572;2022-12-07T11:31:50;100118.17;;;7.20;64.44
54554;BME280;40450;55.848;-3.572;2022-12-07T11:34:18;100117.85;;;6.69;62.88
54554;BME280;40450;55.848;-3.572;2022-12-07T11:36:43;100117.18;;;6.96;63.99
54554;BME280;40450;55.848;-3.572;2022-12-07T11:39:20;100115.23;;;4.93;65.19
54554;BME280;40450;55.848;-3.572;2022-12-07T11:41:43;100113.07;;;6.20;63.06
54554;BME280;40450;55.848;-3.572;2022-12-07T11:44:24;100110.48;;;6.91;63.51
54554;BME280;40450;55.848;-3.572;2022-12-07T11:46:48;100107.68;;;7.20;62.47
54554;BME280;40450;55.848;-3.572;2022-12-07T11:49:20;100107.29;;;6.95;62.66
54554;BME280;40450;55.848;-3.572;2022-12-07T11:51:45;100104.13;;;6.98;61.79
54554;BME280;40450;55.848;-3.572;2022-12-07T11:54:18;100100.60;;;6.32;62.98
54554;BME280;40450;55.848;-3.572;2022-12-07T11:56:47;100091.69;;;6.36;62.52
54554;BME280;40450;55.848;-3.572;2022-12-07T11:59:19;100079.90;;;4.68;65.62
54554;BME280;40450;55.848;-3.572;2022-12-07T12:01:52;100074.36;;;5.33;64.62
54554;BME280;40450;55.848;-3.572;2022-12-07T12:04:27;100064.48;;;6.47;63.66
54554;BME280;40450;55.848;-3.572;2022-12-07T12:06:47;100063.52;;;6.68;63.61
54554;BME280;40450;55.848;-3.572;2022-12-07T12:09:19;100061.23;;;6.46;63.15
54554;BME280;40450;55.848;-3.572;2022-12-07T12:12:00;100055.85;;;6.28;63.61
54554;BME280;40450;55.848;-3.572;2022-12-07T12:14:29;100061.00;;;6.47;63.77
54554;BME280;40450;55.848;-3.572;2022-12-07T12:17:03;100068.04;;;5.72;65.05
54554;BME280;40450;55.848;-3.572;2022-12-07T12:19:26;100059.07;;;5.58;66.01
54554;BME280;40450;55.848;-3.572;2022-12-07T12:21:55;100057.35;;;5.16;66.01
54554;BME280;40450;55.848;-3.572;2022-12-07T12:24:23;100052.36;;;5.59;65.99
54554;BME280;40450;55.848;-3.572;2022-12-07T12:26:52;100044.99;;;5.83;65.83
54554;BME280;40450;55.848;-3.572;2022-12-07T12:29:24;100037.36;;;6.07;65.21
54554;BME280;40450;55.848;-3.572;2022-12-07T12:34:30;100033.09;;;5.81;64.60
54554;BME280;40450;55.848;-3.572;2022-12-07T12:36:52;100022.04;;;6.65;63.18
54554;BME280;40450;55.848;-3.572;2022-12-07T12:39:22;100012.73;;;6.17;64.39
54554;BME280;40450;55.848;-3.572;2022-12-07T12:41:55;100002.80;;;5.50;64.80
54554;BME280;40450;55.848;-3.572;2022-12-07T12:46:54;99992.32;;;5.52;63.99
54554;BME280;40450;55.848;-3.572;2022-12-07T12:51:56;99995.81;;;5.35;65.21
54554;BME280;40450;55.848;-3.572;2022-12-07T12:54:26;99994.77;;;4.51;67.72
54554;BME280;40450;55.848;-3.572;2022-12-07T12:56:59;100001.20;;;4.51;66.62
54554;BME280;40450;55.848;-3.572;2022-12-07T12:59:28;100010.01;;;0.16;79.42
54554;BME280;40450;55.848;-3.572;2022-12-07T13:04:34;99999.22;;;3.49;71.68
54554;BME280;40450;55.848;-3.572;2022-12-07T13:06:57;99996.80;;;3.53;71.30
54554;BME280;40450;55.848;-3.572;2022-12-07T13:09:29;99990.88;;;4.47;69.85
54554;BME280;40450;55.848;-3.572;2022-12-07T13:12:01;99987.35;;;5.42;67.58
54554;BME280;40450;55.848;-3.572;2022-12-07T13:16:58;99977.01;;;6.07;66.29
54554;BME280;40450;55.848;-3.572;2022-12-07T13:21:59;99973.50;;;6.56;64.55
54554;BME280;40450;55.848;-3.572;2022-12-07T13:24:31;99972.26;;;4.18;69.44
54554;BME280;40450;55.848;-3.572;2022-12-07T13:27:01;99975.90;;;3.70;70.27
54554;BME280;40450;55.848;-3.572;2022-12-07T13:29:36;99980.11;;;2.75;73.69
54554;BME280;40450;55.848;-3.572;2022-12-07T13:32:01;99975.14;;;1.48;76.74